createdAt,value
2023-07-08T00:00:50.174Z,53.54
2023-07-08T00:03:20.157Z,53.54
2023-07-08T00:05:48.969Z,53.56
2023-07-08T00:08:17.764Z,53.75
2023-07-08T00:10:44.530Z,53.61
2023-07-08T00:13:11.842Z,53.96
2023-07-08T00:15:42.223Z,54.26
2023-07-08T00:18:17.865Z,54.70
2023-07-08T00:20:47.965Z,54.59
2023-07-08T00:23:15.419Z,54.75
2023-07-08T00:25:43.017Z,54.66
2023-07-08T00:28:18.917Z,55.31
2023-07-08T00:30:46.001Z,54.71
2023-07-08T00:33:12.959Z,54.91
2023-07-08T00:35:42.271Z,55.07
2023-07-08T00:38:16.445Z,55.33
2023-07-08T00:40:59.772Z,55.82
2023-07-08T00:43:44.338Z,55.83
2023-07-08T00:46:26.313Z,55.80
2023-07-08T00:48:57.453Z,55.77
2023-07-08T00:51:25.217Z,55.95
2023-07-08T00:53:51.955Z,55.45
2023-07-08T00:56:21.736Z,55.44
2023-07-08T00:58:55.070Z,55.94
2023-07-08T01:01:22.607Z,56.82
2023-07-08T01:04:02.519Z,56.37
2023-07-08T01:06:33.375Z,56.84
2023-07-08T01:09:06.565Z,56.36
2023-07-08T01:11:36.231Z,56.71
2023-07-08T01:14:07.364Z,56.78
2023-07-08T01:16:35.147Z,56.78
2023-07-08T01:19:06.666Z,56.51
2023-07-08T01:21:40.917Z,56.75
2023-07-08T01:24:11.329Z,56.41
2023-07-08T01:26:42.970Z,57.36
2023-07-08T01:29:10.040Z,57.16
2023-07-08T01:31:37.148Z,56.65
2023-07-08T01:34:05.311Z,56.51
2023-07-08T01:36:39.382Z,57.29
2023-07-08T01:39:07.537Z,57.49
2023-07-08T01:41:34.209Z,57.37
2023-07-08T01:44:01.125Z,57.15
2023-07-08T01:46:28.373Z,57.62
2023-07-08T01:48:58.863Z,57.15
2023-07-08T01:51:27.722Z,57.50
2023-07-08T01:53:54.295Z,57.56
2023-07-08T01:56:20.916Z,57.75
2023-07-08T01:58:47.874Z,57.23
2023-07-08T02:01:14.735Z,57.61
2023-07-08T02:03:43.969Z,57.73
2023-07-08T02:06:11.759Z,58.10
2023-07-08T02:08:38.642Z,58.12
2023-07-08T02:11:05.261Z,57.78
2023-07-08T02:13:32.230Z,57.74
2023-07-08T02:15:58.911Z,57.79
2023-07-08T02:18:26.716Z,57.84
2023-07-08T02:20:53.274Z,58.14
2023-07-08T02:23:20.055Z,58.16
2023-07-08T02:25:54.522Z,58.26
2023-07-08T02:28:21.681Z,57.75
2023-07-08T02:30:48.346Z,58.05
2023-07-08T02:33:18.599Z,58.38
2023-07-08T02:35:46.599Z,58.76
2023-07-08T02:38:14.263Z,58.72
2023-07-08T02:40:41.121Z,58.32
2023-07-08T02:43:08.072Z,58.85
2023-07-08T02:45:34.736Z,58.49
2023-07-08T02:48:01.584Z,58.22
2023-07-08T02:50:28.145Z,59.00
2023-07-08T02:52:54.994Z,59.03
2023-07-08T02:55:21.605Z,58.76
2023-07-08T02:57:48.337Z,58.48
2023-07-08T03:00:15.938Z,58.77
2023-07-08T03:02:42.816Z,58.75
2023-07-08T03:05:09.592Z,59.46
2023-07-08T03:07:36.467Z,59.31
2023-07-08T03:10:03.344Z,59.78
2023-07-08T03:12:30.133Z,60.08
2023-07-08T03:14:57.505Z,59.70
2023-07-08T03:17:24.310Z,59.66
2023-07-08T03:19:51.977Z,60.08
2023-07-08T03:22:18.820Z,59.57
2023-07-08T03:24:48.258Z,60.10
2023-07-08T03:27:19.010Z,60.30
2023-07-08T03:29:48.677Z,60.04
2023-07-08T03:32:15.777Z,59.98
2023-07-08T03:34:43.466Z,60.10
2023-07-08T03:37:10.926Z,59.93
2023-07-08T03:39:37.803Z,59.66
2023-07-08T03:42:05.049Z,59.76
2023-07-08T03:44:31.734Z,59.65
2023-07-08T03:46:59.790Z,60.02
2023-07-08T03:49:26.698Z,59.87
2023-07-08T03:51:55.804Z,59.58
2023-07-08T03:54:25.286Z,59.46
2023-07-08T03:56:54.438Z,60.30
2023-07-08T03:59:24.022Z,60.07
2023-07-08T04:01:51.322Z,59.86
2023-07-08T04:04:18.736Z,59.75
2023-07-08T04:06:46.536Z,59.56
2023-07-08T04:09:13.959Z,59.81
2023-07-08T04:11:40.659Z,59.98
2023-07-08T04:14:10.250Z,60.18
2023-07-08T04:16:52.693Z,59.87
2023-07-08T04:19:20.757Z,60.08
2023-07-08T04:21:47.856Z,59.71
2023-07-08T04:24:16.393Z,59.74
2023-07-08T04:26:43.708Z,59.51
2023-07-08T04:29:18.943Z,59.64
2023-07-08T04:31:46.043Z,59.49
2023-07-08T04:34:12.972Z,59.51
2023-07-08T04:36:39.685Z,59.48
2023-07-08T04:39:07.820Z,59.15
2023-07-08T04:41:35.196Z,58.56
2023-07-08T04:44:03.657Z,58.36
2023-07-08T04:46:38.266Z,58.59
2023-07-08T04:49:06.840Z,58.34
2023-07-08T04:51:34.260Z,56.60
2023-07-08T04:54:00.911Z,53.46
2023-07-08T04:56:37.158Z,50.28
2023-07-08T04:59:06.409Z,49.15
2023-07-08T05:01:33.269Z,48.38
2023-07-08T05:04:00.881Z,47.21
2023-07-08T05:06:28.180Z,46.08
2023-07-08T05:08:54.988Z,45.21
2023-07-08T05:11:21.815Z,45.23
2023-07-08T05:13:48.481Z,44.80
2023-07-08T05:16:15.622Z,43.98
2023-07-08T05:18:42.474Z,43.04
2023-07-08T05:21:10.892Z,41.68
2023-07-08T05:23:37.760Z,41.66
2023-07-08T05:26:06.325Z,43.47
2023-07-08T05:28:33.247Z,43.61
2023-07-08T05:31:00.214Z,42.99
2023-07-08T05:33:29.758Z,41.17
2023-07-08T05:35:56.477Z,40.37
2023-07-08T05:38:24.560Z,39.97
2023-07-08T05:40:54.606Z,39.73
2023-07-08T05:43:21.627Z,39.23
2023-07-08T05:46:01.621Z,38.54
2023-07-08T05:48:32.531Z,39.83
2023-07-08T05:50:59.364Z,39.63
2023-07-08T05:53:26.237Z,37.93
2023-07-08T05:55:52.857Z,37.13
2023-07-08T05:58:25.980Z,37.37
2023-07-08T06:01:01.298Z,37.80
2023-07-08T06:03:28.852Z,37.74
2023-07-08T06:05:55.550Z,36.16
2023-07-08T06:08:22.785Z,36.91
2023-07-08T06:10:51.009Z,37.43
2023-07-08T06:13:17.822Z,36.15
2023-07-08T06:15:45.214Z,35.15
2023-07-08T06:18:12.177Z,35.02
2023-07-08T06:20:38.974Z,34.72
2023-07-08T06:23:06.334Z,33.43
2023-07-08T06:25:34.372Z,32.90
2023-07-08T06:28:01.500Z,33.04
2023-07-08T06:30:28.156Z,34.11
2023-07-08T06:32:55.265Z,34.37
2023-07-08T06:35:21.910Z,33.60
2023-07-08T06:37:48.568Z,34.28
2023-07-08T06:40:15.273Z,34.49
2023-07-08T06:42:42.163Z,34.36
2023-07-08T06:45:26.541Z,33.93
2023-07-08T06:47:53.581Z,33.64
2023-07-08T06:50:20.609Z,33.38
2023-07-08T06:52:47.238Z,33.89
2023-07-08T06:55:14.242Z,34.19
2023-07-08T06:57:41.594Z,34.17
2023-07-08T07:00:10.946Z,33.20
2023-07-08T07:02:38.428Z,31.90
2023-07-08T07:05:05.727Z,31.61
2023-07-08T07:07:32.514Z,32.29
2023-07-08T07:10:04.516Z,32.30
2023-07-08T07:12:31.490Z,32.77
2023-07-08T07:14:58.424Z,32.68
2023-07-08T07:17:26.999Z,32.04
2023-07-08T07:19:54.780Z,30.73
2023-07-08T07:22:21.598Z,30.50
2023-07-08T07:24:48.498Z,30.99
2023-07-08T07:27:15.450Z,31.45
2023-07-08T07:29:50.709Z,31.81
2023-07-08T07:32:19.416Z,32.46
2023-07-08T07:34:50.665Z,31.57
2023-07-08T07:37:19.521Z,31.71
2023-07-08T07:39:46.800Z,31.82
2023-07-08T07:42:17.385Z,31.83
2023-07-08T07:44:44.624Z,31.00
2023-07-08T07:47:12.087Z,30.67
2023-07-08T07:49:39.811Z,30.80
2023-07-08T07:52:07.168Z,30.92
2023-07-08T07:54:34.143Z,30.01
2023-07-08T07:57:00.953Z,29.80
2023-07-08T07:59:27.935Z,29.65
2023-07-08T08:01:54.658Z,30.60
2023-07-08T08:04:21.439Z,29.73
2023-07-08T08:06:48.451Z,29.29
2023-07-08T08:09:15.336Z,28.68
2023-07-08T08:11:42.324Z,28.93
2023-07-08T08:14:09.036Z,29.24
2023-07-08T08:16:36.921Z,28.08
2023-07-08T08:19:07.144Z,27.48
2023-07-08T08:21:35.357Z,27.28
2023-07-08T08:24:02.215Z,27.47
2023-07-08T08:26:29.884Z,26.99
2023-07-08T08:28:58.014Z,26.99
2023-07-08T08:31:25.724Z,27.98
2023-07-08T08:33:53.824Z,28.53
2023-07-08T08:36:22.013Z,27.32
2023-07-08T08:38:48.815Z,26.71
2023-07-08T08:41:19.389Z,26.39
2023-07-08T08:43:49.561Z,27.43
2023-07-08T08:46:25.540Z,27.41
2023-07-08T08:49:21.484Z,27.09
2023-07-08T08:51:49.409Z,26.54
2023-07-08T08:54:16.264Z,26.37
2023-07-08T08:57:27.406Z,27.30
2023-07-08T08:59:57.113Z,27.42
2023-07-08T09:02:41.617Z,26.62
2023-07-08T09:05:11.863Z,26.92
2023-07-08T09:07:48.216Z,27.17
2023-07-08T09:10:30.485Z,26.99
2023-07-08T09:12:59.175Z,25.81
2023-07-08T09:15:27.413Z,25.66
2023-07-08T09:17:58.875Z,25.79
2023-07-08T09:20:30.045Z,26.01
2023-07-08T09:23:22.224Z,25.79
2023-07-08T09:25:52.548Z,25.64
2023-07-08T09:28:19.473Z,25.09
2023-07-08T09:30:53.804Z,25.33
2023-07-08T09:33:20.813Z,26.80
2023-07-08T09:35:49.309Z,26.89
2023-07-08T09:38:18.778Z,27.16
2023-07-08T09:40:50.580Z,26.81
2023-07-08T09:43:26.831Z,26.71
2023-07-08T09:46:01.286Z,26.67
2023-07-08T09:48:30.981Z,26.39
2023-07-08T09:50:59.811Z,25.61
2023-07-08T09:53:29.056Z,24.96
2023-07-08T09:55:59.840Z,23.90
2023-07-08T09:58:31.109Z,24.02
2023-07-08T10:01:02.319Z,24.34
2023-07-08T10:03:34.063Z,24.75
2023-07-08T10:06:06.831Z,24.29
2023-07-08T10:08:44.522Z,25.23
2023-07-08T10:11:29.839Z,24.98
2023-07-08T10:14:13.849Z,25.95
2023-07-08T10:16:42.322Z,26.07
2023-07-08T10:19:18.300Z,26.09
2023-07-08T10:22:11.002Z,25.66
2023-07-08T10:25:13.459Z,26.08
2023-07-08T10:27:55.738Z,25.68
2023-07-08T10:30:26.483Z,26.78
2023-07-08T10:33:14.436Z,26.60
2023-07-08T10:35:59.204Z,27.07
2023-07-08T10:38:47.910Z,27.31
2023-07-08T10:42:02.460Z,26.84
2023-07-08T10:44:39.259Z,26.16
2023-07-08T10:47:20.974Z,26.01
2023-07-08T10:50:04.116Z,26.62
2023-07-08T10:52:59.387Z,25.25
2023-07-08T10:55:46.181Z,26.06
2023-07-08T10:58:25.347Z,25.67
2023-07-08T11:01:06.537Z,26.36
2023-07-08T11:03:58.239Z,26.63
2023-07-08T11:06:42.346Z,26.03
2023-07-08T11:09:13.858Z,25.33
2023-07-08T11:11:57.835Z,25.85
2023-07-08T11:14:40.004Z,25.46
2023-07-08T11:17:19.886Z,25.35
2023-07-08T11:20:22.733Z,25.09
2023-07-08T11:23:07.398Z,25.24
2023-07-08T11:25:34.581Z,25.66
2023-07-08T11:28:06.418Z,26.29
2023-07-08T11:30:39.682Z,25.98
2023-07-08T11:33:12.373Z,26.19
2023-07-08T11:35:44.466Z,25.98
2023-07-08T11:38:20.459Z,26.12
2023-07-08T11:40:59.738Z,26.02
2023-07-08T11:43:34.554Z,25.81
2023-07-08T11:46:06.556Z,25.90
2023-07-08T11:48:46.953Z,25.89
2023-07-08T11:51:35.098Z,26.15
2023-07-08T11:54:04.760Z,26.60
2023-07-08T11:56:49.621Z,26.78
2023-07-08T11:59:21.040Z,26.40
2023-07-08T12:01:51.453Z,25.70
2023-07-08T12:04:25.998Z,25.93
2023-07-08T12:07:04.591Z,25.84
2023-07-08T12:09:37.785Z,26.13
2023-07-08T12:12:15.814Z,26.08
2023-07-08T12:14:42.705Z,25.73
2023-07-08T12:17:13.357Z,26.35
2023-07-08T12:19:43.508Z,26.16
2023-07-08T12:22:12.997Z,25.84
2023-07-08T12:24:41.723Z,26.06
2023-07-08T12:27:11.426Z,26.10
2023-07-08T12:29:39.109Z,25.73
2023-07-08T12:32:06.779Z,25.15
2023-07-08T12:34:34.341Z,24.63
2023-07-08T12:37:01.124Z,24.43
2023-07-08T12:39:27.846Z,25.22
2023-07-08T12:41:57.751Z,25.40
2023-07-08T12:44:27.205Z,25.12
2023-07-08T12:46:55.444Z,24.91
2023-07-08T12:49:27.905Z,24.82
2023-07-08T12:51:54.552Z,24.50
2023-07-08T12:54:23.194Z,24.22
2023-07-08T12:56:51.824Z,24.96
2023-07-08T12:59:22.572Z,24.43
2023-07-08T13:01:51.315Z,24.79
2023-07-08T13:04:19.761Z,25.18
2023-07-08T13:06:48.190Z,24.75
2023-07-08T13:09:41.947Z,23.98
2023-07-08T13:12:23.394Z,24.15
2023-07-08T13:14:50.562Z,23.87
2023-07-08T13:17:18.250Z,24.05
2023-07-08T13:19:45.898Z,23.88
2023-07-08T13:22:19.370Z,24.00
2023-07-08T13:24:46.197Z,24.25
2023-07-08T13:27:31.092Z,24.62
2023-07-08T13:30:17.080Z,24.49
2023-07-08T13:32:44.894Z,23.91
2023-07-08T13:35:28.229Z,24.40
2023-07-08T13:37:57.496Z,23.82
2023-07-08T13:40:28.109Z,23.77
2023-07-08T13:42:55.193Z,24.01
2023-07-08T13:45:33.509Z,24.04
2023-07-08T13:48:13.804Z,23.96
2023-07-08T13:50:56.865Z,23.62
2023-07-08T13:53:28.989Z,24.02
2023-07-08T13:56:01.729Z,23.56
2023-07-08T13:58:30.676Z,23.65
2023-07-08T14:00:58.696Z,23.73
2023-07-08T14:03:26.793Z,23.45
2023-07-08T14:05:53.623Z,23.72
2023-07-08T14:08:20.433Z,23.73
2023-07-08T14:10:47.174Z,23.77
2023-07-08T14:13:13.830Z,24.33
2023-07-08T14:15:41.596Z,23.99
2023-07-08T14:18:11.460Z,23.74
2023-07-08T14:20:38.201Z,24.16
2023-07-08T14:23:04.832Z,24.06
2023-07-08T14:25:33.657Z,23.37
2023-07-08T14:28:00.331Z,23.62
2023-07-08T14:30:27.136Z,24.26
2023-07-08T14:32:54.261Z,23.56
2023-07-08T14:35:28.928Z,23.10
2023-07-08T14:37:57.020Z,23.56
2023-07-08T14:40:36.535Z,23.27
2023-07-08T14:43:25.775Z,23.28
2023-07-08T14:45:55.545Z,23.83
2023-07-08T14:48:23.852Z,23.70
2023-07-08T14:50:52.254Z,23.44
2023-07-08T14:53:22.234Z,23.49
2023-07-08T14:55:52.638Z,23.51
2023-07-08T14:58:28.570Z,23.24
2023-07-08T15:01:01.078Z,23.50
2023-07-08T15:03:28.571Z,23.43
2023-07-08T15:05:55.549Z,23.84
2023-07-08T15:08:22.360Z,23.58
2023-07-08T15:10:53.414Z,23.32
2023-07-08T15:13:27.209Z,23.04
2023-07-08T15:16:01.939Z,23.44
2023-07-08T15:18:30.500Z,23.48
2023-07-08T15:20:57.418Z,24.70
2023-07-08T15:23:24.223Z,24.81
2023-07-08T15:25:51.043Z,24.52
2023-07-08T15:28:37.579Z,24.84
2023-07-08T15:31:04.901Z,24.89
2023-07-08T15:33:31.966Z,24.82
2023-07-08T15:35:58.701Z,26.74
2023-07-08T15:38:25.300Z,27.95
2023-07-08T15:40:53.097Z,28.29
2023-07-08T15:43:19.773Z,28.48
2023-07-08T15:45:46.664Z,28.07
2023-07-08T15:48:18.306Z,27.76
2023-07-08T15:50:45.598Z,27.39
2023-07-08T15:53:12.251Z,27.12
2023-07-08T15:55:42.467Z,26.68
2023-07-08T15:58:23.263Z,26.84
2023-07-08T16:00:50.083Z,26.79
2023-07-08T16:03:28.885Z,26.88
2023-07-08T16:05:57.948Z,26.27
2023-07-08T16:08:26.569Z,26.16
2023-07-08T16:11:03.898Z,25.21
2023-07-08T16:13:40.468Z,24.93
2023-07-08T16:16:07.845Z,24.22
2023-07-08T16:18:37.608Z,23.51
2023-07-08T16:21:07.174Z,24.11
2023-07-08T16:23:35.337Z,24.63
2023-07-08T16:26:03.852Z,24.55
2023-07-08T16:28:43.952Z,24.44
2023-07-08T16:31:11.952Z,24.29
2023-07-08T16:33:39.189Z,24.48
2023-07-08T16:36:06.987Z,24.52
2023-07-08T16:38:33.658Z,24.27
2023-07-08T16:41:00.465Z,23.92
2023-07-08T16:43:32.281Z,24.72
2023-07-08T16:46:00.220Z,23.85
2023-07-08T16:48:27.058Z,23.54
2023-07-08T16:50:53.944Z,23.20
2023-07-08T16:53:20.552Z,23.38
2023-07-08T16:55:48.551Z,23.73
2023-07-08T16:58:15.347Z,23.04
2023-07-08T17:00:46.761Z,22.35
2023-07-08T17:03:17.338Z,21.30
2023-07-08T17:05:44.448Z,20.82
2023-07-08T17:08:14.970Z,20.82
2023-07-08T17:10:42.133Z,21.13
2023-07-08T17:13:09.699Z,21.63
2023-07-08T17:15:37.627Z,21.86
2023-07-08T17:18:05.821Z,21.58
2023-07-08T17:20:38.531Z,21.58
2023-07-08T17:23:13.923Z,21.89
2023-07-08T17:25:40.932Z,21.70
2023-07-08T17:28:07.827Z,21.70
2023-07-08T17:30:35.278Z,21.07
2023-07-08T17:33:03.735Z,21.32
2023-07-08T17:35:30.742Z,21.86
2023-07-08T17:37:58.234Z,21.79
2023-07-08T17:40:29.898Z,21.60
2023-07-08T17:42:57.312Z,21.47
2023-07-08T17:45:31.254Z,21.59
2023-07-08T17:48:12.512Z,21.68
2023-07-08T17:50:47.600Z,22.39
2023-07-08T17:53:36.737Z,22.22
2023-07-08T17:56:05.145Z,23.32
2023-07-08T17:58:34.842Z,24.74
2023-07-08T18:01:04.568Z,25.12
2023-07-08T18:03:35.736Z,25.89
2023-07-08T18:06:02.696Z,26.27
2023-07-08T18:08:29.686Z,25.73
2023-07-08T18:10:56.389Z,25.29
2023-07-08T18:13:25.860Z,25.12
2023-07-08T18:16:18.621Z,25.20
2023-07-08T18:18:51.587Z,25.26
2023-07-08T18:21:24.058Z,25.47
2023-07-08T18:23:54.730Z,25.27
2023-07-08T18:26:28.301Z,25.42
2023-07-08T18:28:55.487Z,25.79
2023-07-08T18:31:35.183Z,25.49
2023-07-08T18:34:06.378Z,25.44
2023-07-08T18:36:34.383Z,25.86
2023-07-08T18:39:01.122Z,25.59
2023-07-08T18:41:30.518Z,25.90
2023-07-08T18:43:58.345Z,26.11
2023-07-08T18:46:26.653Z,25.91
2023-07-08T18:48:54.002Z,26.17
2023-07-08T18:51:39.892Z,27.06
2023-07-08T18:54:13.805Z,26.67
2023-07-08T18:56:40.725Z,27.08
2023-07-08T18:59:07.489Z,28.17
2023-07-08T19:01:38.380Z,28.81
2023-07-08T19:04:05.866Z,29.53
2023-07-08T19:06:32.652Z,30.00
2023-07-08T19:08:59.302Z,30.63
2023-07-08T19:11:28.797Z,30.73
2023-07-08T19:13:57.117Z,30.52
2023-07-08T19:16:23.832Z,30.75
2023-07-08T19:18:51.567Z,31.37
2023-07-08T19:21:25.887Z,31.61
2023-07-08T19:23:55.561Z,31.66
2023-07-08T19:26:24.610Z,31.79
2023-07-08T19:28:51.986Z,32.44
2023-07-08T19:31:25.488Z,32.65
2023-07-08T19:33:53.569Z,32.49
2023-07-08T19:36:21.099Z,32.75
2023-07-08T19:38:52.011Z,32.74
2023-07-08T19:41:26.553Z,33.40
2023-07-08T19:43:55.584Z,33.53
2023-07-08T19:46:22.379Z,33.60
2023-07-08T19:48:49.079Z,33.83
2023-07-08T19:51:15.964Z,33.95
2023-07-08T19:53:42.628Z,34.01
2023-07-08T19:56:13.135Z,34.45
2023-07-08T19:58:40.861Z,34.62
2023-07-08T20:01:08.461Z,35.07
2023-07-08T20:03:35.957Z,35.31
2023-07-08T20:06:25.758Z,35.84
2023-07-08T20:08:53.203Z,36.03
2023-07-08T20:11:20.047Z,36.26
2023-07-08T20:13:47.336Z,36.97
2023-07-08T20:16:24.434Z,36.71
2023-07-08T20:18:57.598Z,36.78
2023-07-08T20:21:27.444Z,37.16
2023-07-08T20:23:54.218Z,37.18
2023-07-08T20:26:31.329Z,37.59
2023-07-08T20:28:59.593Z,37.22
2023-07-08T20:31:27.051Z,37.76
2023-07-08T20:33:55.205Z,37.48
2023-07-08T20:36:25.037Z,37.62
2023-07-08T20:38:52.488Z,37.89
2023-07-08T20:41:19.833Z,38.04
2023-07-08T20:43:46.728Z,38.13
2023-07-08T20:46:23.511Z,38.77
2023-07-08T20:48:56.480Z,38.88
2023-07-08T20:51:24.869Z,40.41
2023-07-08T20:53:52.963Z,38.90
2023-07-08T20:56:32.044Z,39.55
2023-07-08T20:58:59.279Z,39.56
2023-07-08T21:01:27.455Z,40.19
2023-07-08T21:03:54.436Z,40.11
2023-07-08T21:06:25.268Z,40.53
2023-07-08T21:08:52.877Z,40.25
2023-07-08T21:11:20.101Z,40.42
2023-07-08T21:13:47.429Z,40.47
2023-07-08T21:16:16.193Z,41.09
2023-07-08T21:18:42.940Z,41.25
2023-07-08T21:21:11.577Z,41.17
2023-07-08T21:23:39.515Z,41.54
2023-07-08T21:26:35.684Z,42.31
2023-07-08T21:29:03.604Z,42.03
2023-07-08T21:31:30.998Z,42.09
2023-07-08T21:33:57.934Z,42.43
2023-07-08T21:36:35.793Z,42.56
2023-07-08T21:39:30.785Z,44.07
2023-07-08T21:41:57.441Z,42.51
2023-07-08T21:44:24.215Z,42.66
2023-07-08T21:46:51.191Z,42.66
2023-07-08T21:49:18.722Z,42.50
2023-07-08T21:51:46.968Z,42.76
2023-07-08T21:54:14.400Z,42.90
2023-07-08T21:56:41.138Z,42.92
2023-07-08T21:59:19.459Z,43.75
2023-07-08T22:01:46.774Z,43.21
2023-07-08T22:04:14.669Z,43.63
2023-07-08T22:06:41.584Z,43.28
2023-07-08T22:09:08.406Z,43.17
2023-07-08T22:11:37.420Z,43.64
2023-07-08T22:14:05.324Z,43.35
2023-07-08T22:16:33.618Z,43.60
2023-07-08T22:19:01.963Z,43.98
2023-07-08T22:21:31.582Z,43.82
2023-07-08T22:24:04.891Z,44.00
2023-07-08T22:26:36.358Z,43.25
2023-07-08T22:29:03.310Z,43.08
2023-07-08T22:31:36.334Z,42.55
2023-07-08T22:34:10.901Z,43.31
2023-07-08T22:36:37.551Z,44.07
2023-07-08T22:39:07.361Z,44.46
2023-07-08T22:41:41.610Z,44.53
2023-07-08T22:44:12.236Z,44.81
2023-07-08T22:46:39.213Z,44.53
2023-07-08T22:49:05.947Z,44.72
2023-07-08T22:51:38.510Z,44.96
2023-07-08T22:54:06.563Z,45.43
2023-07-08T22:56:33.362Z,45.53
2023-07-08T22:59:00.046Z,45.89
2023-07-08T23:01:26.840Z,46.31
2023-07-08T23:03:53.604Z,46.21
2023-07-08T23:06:24.427Z,46.79
2023-07-08T23:08:51.153Z,47.25
2023-07-08T23:11:18.078Z,47.40
2023-07-08T23:13:46.400Z,47.77
2023-07-08T23:16:16.456Z,48.05
2023-07-08T23:18:48.889Z,48.10
2023-07-08T23:21:18.659Z,48.11
2023-07-08T23:23:45.212Z,48.54
2023-07-08T23:26:13.741Z,48.59
2023-07-08T23:28:41.013Z,49.14
2023-07-08T23:31:10.442Z,49.25
2023-07-08T23:33:38.671Z,49.69
2023-07-08T23:36:18.949Z,49.37
2023-07-08T23:38:45.961Z,49.58
2023-07-08T23:41:13.052Z,49.97
2023-07-08T23:43:45.772Z,50.05
2023-07-08T23:46:23.176Z,51.20
2023-07-08T23:48:51.636Z,50.68
2023-07-08T23:51:18.636Z,51.10
2023-07-08T23:53:45.481Z,51.33
2023-07-08T23:56:14.992Z,51.35
2023-07-08T23:58:42.309Z,51.69
